sensor_id;sensor_type;location;lat;lon;timestamp;temperature;humidity
51825;DHT22;37879;52.986;6.282;2022-11-20T00:01:17;-0.80;99.90
51825;DHT22;37879;52.986;6.282;2022-11-20T00:03:44;-1.10;99.90
51825;DHT22;37879;52.986;6.282;2022-11-20T00:06:13;-1.10;99.90
51825;DHT22;37879;52.986;6.282;2022-11-20T00:08:39;-1.00;99.90
51825;DHT22;37879;52.986;6.282;2022-11-20T00:11:06;-1.00;99.90
51825;DHT22;37879;52.986;6.282;2022-11-20T00:13:33;-0.70;99.90
51825;DHT22;37879;52.986;6.282;2022-11-20T00:16:00;-1.00;99.90
51825;DHT22;37879;52.986;6.282;2022-11-20T00:18:26;-1.00;99.90
51825;DHT22;37879;52.986;6.282;2022-11-20T00:20:52;-1.00;99.90
51825;DHT22;37879;52.986;6.282;2022-11-20T00:23:18;-1.00;99.90
51825;DHT22;37879;52.986;6.282;2022-11-20T00:25:44;-0.90;99.90
51825;DHT22;37879;52.986;6.282;2022-11-20T00:28:09;-0.90;99.90
51825;DHT22;37879;52.986;6.282;2022-11-20T00:30:35;-1.00;99.90
51825;DHT22;37879;52.986;6.282;2022-11-20T00:33:01;-0.90;99.90
51825;DHT22;37879;52.986;6.282;2022-11-20T00:35:26;-0.90;99.90
51825;DHT22;37879;52.986;6.282;2022-11-20T00:37:52;-1.00;99.90
51825;DHT22;37879;52.986;6.282;2022-11-20T00:40:18;-1.00;99.90
51825;DHT22;37879;52.986;6.282;2022-11-20T00:42:43;0.20;99.90
51825;DHT22;37879;52.986;6.282;2022-11-20T00:45:09;-0.90;99.90
51825;DHT22;37879;52.986;6.282;2022-11-20T00:47:35;-0.90;99.90
51825;DHT22;37879;52.986;6.282;2022-11-20T00:50:00;-0.90;99.90
51825;DHT22;37879;52.986;6.282;2022-11-20T00:52:26;-0.90;99.90
51825;DHT22;37879;52.986;6.282;2022-11-20T00:54:51;-0.80;99.90
51825;DHT22;37879;52.986;6.282;2022-11-20T00:57:17;-0.90;99.90
51825;DHT22;37879;52.986;6.282;2022-11-20T00:59:43;-0.90;99.90
51825;DHT22;37879;52.986;6.282;2022-11-20T01:02:08;-0.70;99.90
51825;DHT22;37879;52.986;6.282;2022-11-20T01:04:34;-1.00;99.90
51825;DHT22;37879;52.986;6.282;2022-11-20T01:07:00;-1.00;99.90
51825;DHT22;37879;52.986;6.282;2022-11-20T01:09:25;-1.00;99.90
51825;DHT22;37879;52.986;6.282;2022-11-20T01:11:51;-1.00;99.90
51825;DHT22;37879;52.986;6.282;2022-11-20T01:14:19;-1.00;99.90
51825;DHT22;37879;52.986;6.282;2022-11-20T01:16:47;-1.00;99.90
51825;DHT22;37879;52.986;6.282;2022-11-20T01:19:18;-1.10;99.90
51825;DHT22;37879;52.986;6.282;2022-11-20T01:21:47;-1.00;99.90
51825;DHT22;37879;52.986;6.282;2022-11-20T01:24:14;-0.10;99.90
51825;DHT22;37879;52.986;6.282;2022-11-20T01:26:42;-0.30;99.90
51825;DHT22;37879;52.986;6.282;2022-11-20T01:29:20;-1.00;99.90
51825;DHT22;37879;52.986;6.282;2022-11-20T01:31:46;-0.50;99.90
51825;DHT22;37879;52.986;6.282;2022-11-20T01:34:18;-1.00;99.90
51825;DHT22;37879;52.986;6.282;2022-11-20T01:36:44;-1.00;99.90
51825;DHT22;37879;52.986;6.282;2022-11-20T01:39:13;-1.10;99.90
51825;DHT22;37879;52.986;6.282;2022-11-20T01:41:40;-1.00;99.90
51825;DHT22;37879;52.986;6.282;2022-11-20T01:45:42;-1.00;99.90
51825;DHT22;37879;52.986;6.282;2022-11-20T01:47:49;0.20;99.90
51825;DHT22;37879;52.986;6.282;2022-11-20T01:50:26;-1.00;99.90
51825;DHT22;37879;52.986;6.282;2022-11-20T01:52:58;-1.00;99.90
51825;DHT22;37879;52.986;6.282;2022-11-20T01:55:29;-1.00;99.90
51825;DHT22;37879;52.986;6.282;2022-11-20T01:57:56;-0.70;99.90
51825;DHT22;37879;52.986;6.282;2022-11-20T02:00:23;-0.50;99.90
51825;DHT22;37879;52.986;6.282;2022-11-20T02:02:57;-1.00;99.90
51825;DHT22;37879;52.986;6.282;2022-11-20T02:07:54;-0.80;99.90
51825;DHT22;37879;52.986;6.282;2022-11-20T02:10:21;-0.90;99.90
51825;DHT22;37879;52.986;6.282;2022-11-20T02:12:47;-0.90;99.90
51825;DHT22;37879;52.986;6.282;2022-11-20T02:15:33;-0.90;99.90
51825;DHT22;37879;52.986;6.282;2022-11-20T02:17:59;-0.90;99.90
51825;DHT22;37879;52.986;6.282;2022-11-20T02:20:25;0.90;99.90
51825;DHT22;37879;52.986;6.282;2022-11-20T02:22:56;-0.90;99.90
51825;DHT22;37879;52.986;6.282;2022-11-20T02:25:26;-0.90;99.90
51825;DHT22;37879;52.986;6.282;2022-11-20T02:27:53;0.60;99.90
51825;DHT22;37879;52.986;6.282;2022-11-20T02:30:19;-1.00;99.90
51825;DHT22;37879;52.986;6.282;2022-11-20T02:32:44;-0.90;99.90
51825;DHT22;37879;52.986;6.282;2022-11-20T02:37:58;-0.80;99.90
51825;DHT22;37879;52.986;6.282;2022-11-20T02:40:25;-0.80;99.90
51825;DHT22;37879;52.986;6.282;2022-11-20T02:42:57;-0.80;99.90
51825;DHT22;37879;52.986;6.282;2022-11-20T02:45:24;-0.70;99.90
51825;DHT22;37879;52.986;6.282;2022-11-20T02:47:50;-0.70;99.90
51825;DHT22;37879;52.986;6.282;2022-11-20T02:50:16;-0.70;99.90
51825;DHT22;37879;52.986;6.282;2022-11-20T02:52:42;-0.70;99.90
51825;DHT22;37879;52.986;6.282;2022-11-20T02:55:08;-0.70;99.90
51825;DHT22;37879;52.986;6.282;2022-11-20T02:57:34;-0.70;99.90
51825;DHT22;37879;52.986;6.282;2022-11-20T03:00:00;-0.70;99.90
51825;DHT22;37879;52.986;6.282;2022-11-20T03:02:29;-0.70;99.90
51825;DHT22;37879;52.986;6.282;2022-11-20T03:04:54;-0.70;99.90
51825;DHT22;37879;52.986;6.282;2022-11-20T03:07:20;0.20;99.90
51825;DHT22;37879;52.986;6.282;2022-11-20T03:09:46;-0.70;99.90
51825;DHT22;37879;52.986;6.282;2022-11-20T03:12:11;0.70;99.90
51825;DHT22;37879;52.986;6.282;2022-11-20T03:14:37;-0.70;99.90
51825;DHT22;37879;52.986;6.282;2022-11-20T03:17:03;-0.70;99.90
51825;DHT22;37879;52.986;6.282;2022-11-20T03:19:28;0.30;99.90
51825;DHT22;37879;52.986;6.282;2022-11-20T03:21:54;-0.70;99.90
51825;DHT22;37879;52.986;6.282;2022-11-20T03:24:20;-0.70;99.90
51825;DHT22;37879;52.986;6.282;2022-11-20T03:26:45;-0.70;99.90
51825;DHT22;37879;52.986;6.282;2022-11-20T03:29:11;0.90;99.90
51825;DHT22;37879;52.986;6.282;2022-11-20T03:31:38;-0.70;99.90
51825;DHT22;37879;52.986;6.282;2022-11-20T03:34:09;-0.70;99.90
51825;DHT22;37879;52.986;6.282;2022-11-20T03:36:38;-0.70;99.90
51825;DHT22;37879;52.986;6.282;2022-11-20T03:39:04;-0.70;99.90
51825;DHT22;37879;52.986;6.282;2022-11-20T03:41:31;-0.70;99.90
51825;DHT22;37879;52.986;6.282;2022-11-20T03:44:02;-0.60;99.90
51825;DHT22;37879;52.986;6.282;2022-11-20T03:46:28;-0.60;99.90
51825;DHT22;37879;52.986;6.282;2022-11-20T03:48:55;-0.60;99.90
51825;DHT22;37879;52.986;6.282;2022-11-20T03:51:23;-0.60;99.90
51825;DHT22;37879;52.986;6.282;2022-11-20T03:53:50;-0.50;99.90
51825;DHT22;37879;52.986;6.282;2022-11-20T03:56:18;1.10;99.90
51825;DHT22;37879;52.986;6.282;2022-11-20T03:58:44;0.30;99.90
51825;DHT22;37879;52.986;6.282;2022-11-20T04:01:14;-0.70;99.90
51825;DHT22;37879;52.986;6.282;2022-11-20T04:03:42;-0.70;99.90
51825;DHT22;37879;52.986;6.282;2022-11-20T04:06:22;-0.70;99.90
51825;DHT22;37879;52.986;6.282;2022-11-20T04:08:48;-0.70;99.90
51825;DHT22;37879;52.986;6.282;2022-11-20T04:11:16;-0.80;99.90
51825;DHT22;37879;52.986;6.282;2022-11-20T04:13:46;-0.80;99.90
51825;DHT22;37879;52.986;6.282;2022-11-20T04:16:13;-0.70;99.90
51825;DHT22;37879;52.986;6.282;2022-11-20T04:18:39;-0.70;99.90
51825;DHT22;37879;52.986;6.282;2022-11-20T04:21:05;0.40;99.90
51825;DHT22;37879;52.986;6.282;2022-11-20T04:23:31;-0.70;99.90
51825;DHT22;37879;52.986;6.282;2022-11-20T04:26:06;-0.70;99.90
51825;DHT22;37879;52.986;6.282;2022-11-20T04:28:31;0.70;99.90
51825;DHT22;37879;52.986;6.282;2022-11-20T04:31:09;-0.60;99.90
51825;DHT22;37879;52.986;6.282;2022-11-20T04:33:36;-0.70;99.90
51825;DHT22;37879;52.986;6.282;2022-11-20T04:36:10;0.30;99.90
51825;DHT22;37879;52.986;6.282;2022-11-20T04:38:36;-0.60;99.90
51825;DHT22;37879;52.986;6.282;2022-11-20T04:41:05;-0.60;99.90
51825;DHT22;37879;52.986;6.282;2022-11-20T04:43:31;-0.60;99.90
51825;DHT22;37879;52.986;6.282;2022-11-20T04:45:59;-0.60;99.90
51825;DHT22;37879;52.986;6.282;2022-11-20T04:48:26;-0.60;99.90
51825;DHT22;37879;52.986;6.282;2022-11-20T04:50:52;-0.50;99.90
51825;DHT22;37879;52.986;6.282;2022-11-20T04:53:19;-0.50;99.90
51825;DHT22;37879;52.986;6.282;2022-11-20T04:55:45;-0.50;99.90
51825;DHT22;37879;52.986;6.282;2022-11-20T04:58:11;-0.50;99.90
51825;DHT22;37879;52.986;6.282;2022-11-20T05:00:37;-0.50;99.90
51825;DHT22;37879;52.986;6.282;2022-11-20T05:03:03;-0.60;99.90
51825;DHT22;37879;52.986;6.282;2022-11-20T05:05:29;-0.60;99.90
51825;DHT22;37879;52.986;6.282;2022-11-20T05:07:58;-0.60;99.90
51825;DHT22;37879;52.986;6.282;2022-11-20T05:10:25;-0.60;99.90
51825;DHT22;37879;52.986;6.282;2022-11-20T05:12:51;-0.60;99.90
51825;DHT22;37879;52.986;6.282;2022-11-20T05:15:17;-0.60;99.90
51825;DHT22;37879;52.986;6.282;2022-11-20T05:17:52;-0.60;99.90
51825;DHT22;37879;52.986;6.282;2022-11-20T05:20:19;-0.50;99.90
51825;DHT22;37879;52.986;6.282;2022-11-20T05:22:45;-0.50;99.90
51825;DHT22;37879;52.986;6.282;2022-11-20T05:25:11;-0.50;99.90
51825;DHT22;37879;52.986;6.282;2022-11-20T05:27:37;0.00;99.90
51825;DHT22;37879;52.986;6.282;2022-11-20T05:30:07;-0.50;99.90
51825;DHT22;37879;52.986;6.282;2022-11-20T05:32:32;-0.50;99.90
51825;DHT22;37879;52.986;6.282;2022-11-20T05:34:58;-0.40;99.90
51825;DHT22;37879;52.986;6.282;2022-11-20T05:37:24;-0.40;99.90
51825;DHT22;37879;52.986;6.282;2022-11-20T05:39:49;-0.40;99.90
51825;DHT22;37879;52.986;6.282;2022-11-20T05:42:15;-0.30;99.90
51825;DHT22;37879;52.986;6.282;2022-11-20T05:44:59;-0.40;99.90
51825;DHT22;37879;52.986;6.282;2022-11-20T05:47:27;0.80;99.90
51825;DHT22;37879;52.986;6.282;2022-11-20T05:49:53;-0.40;99.90
51825;DHT22;37879;52.986;6.282;2022-11-20T05:52:18;-0.20;99.90
51825;DHT22;37879;52.986;6.282;2022-11-20T05:54:44;-0.30;99.90
51825;DHT22;37879;52.986;6.282;2022-11-20T05:57:10;-0.30;99.90
51825;DHT22;37879;52.986;6.282;2022-11-20T05:59:35;-0.40;99.90
51825;DHT22;37879;52.986;6.282;2022-11-20T06:02:01;-0.30;99.90
51825;DHT22;37879;52.986;6.282;2022-11-20T06:04:27;-0.30;99.90
51825;DHT22;37879;52.986;6.282;2022-11-20T06:06:52;-0.30;99.90
51825;DHT22;37879;52.986;6.282;2022-11-20T06:09:18;-0.30;99.90
51825;DHT22;37879;52.986;6.282;2022-11-20T06:11:44;-0.20;99.90
51825;DHT22;37879;52.986;6.282;2022-11-20T06:14:09;-0.10;99.90
51825;DHT22;37879;52.986;6.282;2022-11-20T06:16:35;-0.10;99.90
51825;DHT22;37879;52.986;6.282;2022-11-20T06:19:01;-0.20;99.90
51825;DHT22;37879;52.986;6.282;2022-11-20T06:21:26;-0.20;99.90
51825;DHT22;37879;52.986;6.282;2022-11-20T06:23:52;-0.20;99.90
51825;DHT22;37879;52.986;6.282;2022-11-20T06:26:25;-0.20;99.90
51825;DHT22;37879;52.986;6.282;2022-11-20T06:28:52;-0.20;99.90
51825;DHT22;37879;52.986;6.282;2022-11-20T06:31:21;-0.20;99.90
51825;DHT22;37879;52.986;6.282;2022-11-20T06:33:48;0.40;99.90
51825;DHT22;37879;52.986;6.282;2022-11-20T06:36:15;-0.30;99.90
51825;DHT22;37879;52.986;6.282;2022-11-20T06:38:41;0.40;99.90
51825;DHT22;37879;52.986;6.282;2022-11-20T06:41:11;-0.30;99.90
51825;DHT22;37879;52.986;6.282;2022-11-20T06:43:37;-0.30;99.90
51825;DHT22;37879;52.986;6.282;2022-11-20T06:46:02;0.50;99.90
51825;DHT22;37879;52.986;6.282;2022-11-20T06:48:29;-0.30;99.90
51825;DHT22;37879;52.986;6.282;2022-11-20T06:50:55;-0.40;99.90
51825;DHT22;37879;52.986;6.282;2022-11-20T06:53:21;0.20;99.90
51825;DHT22;37879;52.986;6.282;2022-11-20T06:55:48;-0.30;99.90
51825;DHT22;37879;52.986;6.282;2022-11-20T06:58:15;1.20;99.90
51825;DHT22;37879;52.986;6.282;2022-11-20T07:00:42;1.40;99.90
51825;DHT22;37879;52.986;6.282;2022-11-20T07:03:09;1.40;99.90
51825;DHT22;37879;52.986;6.282;2022-11-20T07:05:38;-0.30;99.90
51825;DHT22;37879;52.986;6.282;2022-11-20T07:08:04;-0.40;99.90
51825;DHT22;37879;52.986;6.282;2022-11-20T07:10:31;1.10;99.90
51825;DHT22;37879;52.986;6.282;2022-11-20T07:12:57;-0.30;99.90
51825;DHT22;37879;52.986;6.282;2022-11-20T07:15:24;0.70;99.90
51825;DHT22;37879;52.986;6.282;2022-11-20T07:17:50;-0.30;99.90
51825;DHT22;37879;52.986;6.282;2022-11-20T07:20:17;0.90;99.90
51825;DHT22;37879;52.986;6.282;2022-11-20T07:22:43;-0.30;99.90
51825;DHT22;37879;52.986;6.282;2022-11-20T07:25:09;-0.30;99.90
51825;DHT22;37879;52.986;6.282;2022-11-20T07:27:35;1.30;99.90
51825;DHT22;37879;52.986;6.282;2022-11-20T07:30:02;-0.20;99.90
51825;DHT22;37879;52.986;6.282;2022-11-20T07:32:28;-0.20;99.90
51825;DHT22;37879;52.986;6.282;2022-11-20T07:34:54;-0.20;99.90
51825;DHT22;37879;52.986;6.282;2022-11-20T07:37:20;-0.10;99.90
51825;DHT22;37879;52.986;6.282;2022-11-20T07:39:46;-0.10;99.90
51825;DHT22;37879;52.986;6.282;2022-11-20T07:42:11;1.20;99.90
51825;DHT22;37879;52.986;6.282;2022-11-20T07:44:38;1.40;99.90
51825;DHT22;37879;52.986;6.282;2022-11-20T07:47:04;-0.20;99.90
51825;DHT22;37879;52.986;6.282;2022-11-20T07:49:29;-0.20;99.90
51825;DHT22;37879;52.986;6.282;2022-11-20T07:51:55;-0.30;99.90
51825;DHT22;37879;52.986;6.282;2022-11-20T07:54:21;1.20;99.90
51825;DHT22;37879;52.986;6.282;2022-11-20T07:56:50;-0.30;99.90
51825;DHT22;37879;52.986;6.282;2022-11-20T07:59:16;0.30;99.90
51825;DHT22;37879;52.986;6.282;2022-11-20T08:01:42;0.10;99.90
51825;DHT22;37879;52.986;6.282;2022-11-20T08:04:08;-0.40;99.90
51825;DHT22;37879;52.986;6.282;2022-11-20T08:06:35;-0.40;99.90
51825;DHT22;37879;52.986;6.282;2022-11-20T08:09:01;-0.50;99.90
51825;DHT22;37879;52.986;6.282;2022-11-20T08:11:27;0.50;99.90
51825;DHT22;37879;52.986;6.282;2022-11-20T08:14:11;0.40;99.90
51825;DHT22;37879;52.986;6.282;2022-11-20T08:16:37;-0.30;99.90
51825;DHT22;37879;52.986;6.282;2022-11-20T08:19:03;-0.40;99.90
51825;DHT22;37879;52.986;6.282;2022-11-20T08:21:30;-0.40;99.90
51825;DHT22;37879;52.986;6.282;2022-11-20T08:23:57;0.80;99.90
51825;DHT22;37879;52.986;6.282;2022-11-20T08:26:23;-0.30;99.90
51825;DHT22;37879;52.986;6.282;2022-11-20T08:28:49;0.80;99.90
51825;DHT22;37879;52.986;6.282;2022-11-20T08:31:15;0.90;99.90
51825;DHT22;37879;52.986;6.282;2022-11-20T08:33:40;-0.20;99.90
51825;DHT22;37879;52.986;6.282;2022-11-20T08:36:06;-0.10;99.90
51825;DHT22;37879;52.986;6.282;2022-11-20T08:38:32;0.00;99.90
51825;DHT22;37879;52.986;6.282;2022-11-20T08:40:59;0.10;99.90
51825;DHT22;37879;52.986;6.282;2022-11-20T08:43:44;1.10;99.90
51825;DHT22;37879;52.986;6.282;2022-11-20T08:46:09;0.70;99.90
51825;DHT22;37879;52.986;6.282;2022-11-20T08:48:35;0.10;99.90
51825;DHT22;37879;52.986;6.282;2022-11-20T08:51:01;0.10;99.90
51825;DHT22;37879;52.986;6.282;2022-11-20T08:53:27;1.00;99.90
51825;DHT22;37879;52.986;6.282;2022-11-20T08:55:52;0.20;99.90
51825;DHT22;37879;52.986;6.282;2022-11-20T08:58:18;0.20;99.90
51825;DHT22;37879;52.986;6.282;2022-11-20T09:00:44;0.30;99.90
51825;DHT22;37879;52.986;6.282;2022-11-20T09:03:10;0.30;99.90
51825;DHT22;37879;52.986;6.282;2022-11-20T09:05:35;0.30;99.90
51825;DHT22;37879;52.986;6.282;2022-11-20T09:08:01;0.30;99.90
51825;DHT22;37879;52.986;6.282;2022-11-20T09:10:27;0.40;99.90
51825;DHT22;37879;52.986;6.282;2022-11-20T09:12:53;0.50;99.90
51825;DHT22;37879;52.986;6.282;2022-11-20T09:15:20;0.50;99.90
51825;DHT22;37879;52.986;6.282;2022-11-20T09:17:57;0.60;99.90
51825;DHT22;37879;52.986;6.282;2022-11-20T09:20:23;1.10;99.90
51825;DHT22;37879;52.986;6.282;2022-11-20T09:22:49;0.70;99.90
51825;DHT22;37879;52.986;6.282;2022-11-20T09:25:15;0.70;99.90
51825;DHT22;37879;52.986;6.282;2022-11-20T09:27:41;0.80;99.90
51825;DHT22;37879;52.986;6.282;2022-11-20T09:30:12;2.80;99.90
51825;DHT22;37879;52.986;6.282;2022-11-20T09:32:42;0.80;99.90
51825;DHT22;37879;52.986;6.282;2022-11-20T09:35:08;0.90;99.90
51825;DHT22;37879;52.986;6.282;2022-11-20T09:37:34;1.00;99.90
51825;DHT22;37879;52.986;6.282;2022-11-20T09:40:00;1.00;99.90
51825;DHT22;37879;52.986;6.282;2022-11-20T09:42:45;1.00;99.90
51825;DHT22;37879;52.986;6.282;2022-11-20T09:50:33;1.10;99.90
51825;DHT22;37879;52.986;6.282;2022-11-20T09:53:20;1.20;99.90
51825;DHT22;37879;52.986;6.282;2022-11-20T09:55:48;1.30;99.90
51825;DHT22;37879;52.986;6.282;2022-11-20T09:58:34;1.30;99.90
51825;DHT22;37879;52.986;6.282;2022-11-20T10:01:14;1.40;99.90
51825;DHT22;37879;52.986;6.282;2022-11-20T10:09:50;2.20;99.90
51825;DHT22;37879;52.986;6.282;2022-11-20T10:12:25;1.70;99.90
51825;DHT22;37879;52.986;6.282;2022-11-20T10:26:46;1.90;99.90
51825;DHT22;37879;52.986;6.282;2022-11-20T10:29:17;2.00;99.90
51825;DHT22;37879;52.986;6.282;2022-11-20T10:31:56;3.00;99.90
51825;DHT22;37879;52.986;6.282;2022-11-20T10:34:45;2.10;99.90
51825;DHT22;37879;52.986;6.282;2022-11-20T10:37:16;2.20;99.90
51825;DHT22;37879;52.986;6.282;2022-11-20T10:40:18;2.20;99.90
51825;DHT22;37879;52.986;6.282;2022-11-20T10:42:47;2.30;99.90
51825;DHT22;37879;52.986;6.282;2022-11-20T10:48:16;2.40;99.90
51825;DHT22;37879;52.986;6.282;2022-11-20T10:50:53;2.40;99.90
51825;DHT22;37879;52.986;6.282;2022-11-20T10:56:27;2.90;99.90
51825;DHT22;37879;52.986;6.282;2022-11-20T11:01:59;2.70;99.90
51825;DHT22;37879;52.986;6.282;2022-11-20T11:07:13;3.20;99.90
51825;DHT22;37879;52.986;6.282;2022-11-20T11:09:49;2.80;99.90
51825;DHT22;37879;52.986;6.282;2022-11-20T11:12:15;3.20;99.90
51825;DHT22;37879;52.986;6.282;2022-11-20T11:14:45;3.60;99.90
51825;DHT22;37879;52.986;6.282;2022-11-20T11:17:29;3.50;99.90
51825;DHT22;37879;52.986;6.282;2022-11-20T11:20:18;2.90;99.90
51825;DHT22;37879;52.986;6.282;2022-11-20T11:23:04;3.00;99.90
51825;DHT22;37879;52.986;6.282;2022-11-20T11:25:35;3.00;99.90
51825;DHT22;37879;52.986;6.282;2022-11-20T11:28:04;3.00;99.90
51825;DHT22;37879;52.986;6.282;2022-11-20T11:30:40;3.30;99.90
51825;DHT22;37879;52.986;6.282;2022-11-20T11:33:20;3.20;99.90
51825;DHT22;37879;52.986;6.282;2022-11-20T11:35:49;3.70;99.90
51825;DHT22;37879;52.986;6.282;2022-11-20T11:40:49;3.30;99.90
51825;DHT22;37879;52.986;6.282;2022-11-20T11:43:35;3.60;99.90
51825;DHT22;37879;52.986;6.282;2022-11-20T11:46:32;3.80;99.90
51825;DHT22;37879;52.986;6.282;2022-11-20T11:51:45;3.40;99.90
51825;DHT22;37879;52.986;6.282;2022-11-20T11:54:53;3.80;99.90
51825;DHT22;37879;52.986;6.282;2022-11-20T12:00:19;3.40;99.90
51825;DHT22;37879;52.986;6.282;2022-11-20T12:05:47;4.60;99.90
51825;DHT22;37879;52.986;6.282;2022-11-20T12:08:25;3.30;99.90
51825;DHT22;37879;52.986;6.282;2022-11-20T12:16:13;3.40;99.90
51825;DHT22;37879;52.986;6.282;2022-11-20T12:18:39;3.70;99.90
51825;DHT22;37879;52.986;6.282;2022-11-20T12:21:28;3.90;99.90
51825;DHT22;37879;52.986;6.282;2022-11-20T12:29:42;3.20;99.90
51825;DHT22;37879;52.986;6.282;2022-11-20T12:40:28;3.30;99.90
51825;DHT22;37879;52.986;6.282;2022-11-20T12:58:19;3.40;99.90
51825;DHT22;37879;52.986;6.282;2022-11-20T13:06:15;3.50;99.90
51825;DHT22;37879;52.986;6.282;2022-11-20T13:08:53;3.20;99.90
51825;DHT22;37879;52.986;6.282;2022-11-20T13:17:14;3.20;99.90
51825;DHT22;37879;52.986;6.282;2022-11-20T13:19:41;4.00;99.90
51825;DHT22;37879;52.986;6.282;2022-11-20T13:22:08;3.50;99.90
51825;DHT22;37879;52.986;6.282;2022-11-20T13:24:34;3.20;99.90
51825;DHT22;37879;52.986;6.282;2022-11-20T13:27:16;3.20;99.90
51825;DHT22;37879;52.986;6.282;2022-11-20T13:30:13;3.20;99.90
51825;DHT22;37879;52.986;6.282;2022-11-20T13:35:34;3.10;99.90
51825;DHT22;37879;52.986;6.282;2022-11-20T13:38:08;3.00;99.90
51825;DHT22;37879;52.986;6.282;2022-11-20T13:40:39;3.00;99.90
51825;DHT22;37879;52.986;6.282;2022-11-20T13:46:04;3.10;99.90
51825;DHT22;37879;52.986;6.282;2022-11-20T14:01:34;3.00;99.90
51825;DHT22;37879;52.986;6.282;2022-11-20T14:04:07;3.00;99.90
51825;DHT22;37879;52.986;6.282;2022-11-20T14:06:45;2.90;99.90
51825;DHT22;37879;52.986;6.282;2022-11-20T14:09:31;3.00;99.90
51825;DHT22;37879;52.986;6.282;2022-11-20T14:11:57;2.90;99.90
51825;DHT22;37879;52.986;6.282;2022-11-20T14:14:28;3.10;99.90
51825;DHT22;37879;52.986;6.282;2022-11-20T14:17:09;2.90;99.90
51825;DHT22;37879;52.986;6.282;2022-11-20T14:19:43;2.90;99.90
51825;DHT22;37879;52.986;6.282;2022-11-20T14:22:19;3.30;99.90
51825;DHT22;37879;52.986;6.282;2022-11-20T14:25:21;2.80;99.90
51825;DHT22;37879;52.986;6.282;2022-11-20T14:27:52;3.20;99.90
51825;DHT22;37879;52.986;6.282;2022-11-20T14:30:26;2.80;99.90
51825;DHT22;37879;52.986;6.282;2022-11-20T14:32:55;2.80;99.90
51825;DHT22;37879;52.986;6.282;2022-11-20T14:35:34;4.10;99.90
51825;DHT22;37879;52.986;6.282;2022-11-20T14:38:01;2.80;99.90
51825;DHT22;37879;52.986;6.282;2022-11-20T14:40:35;3.80;99.90
51825;DHT22;37879;52.986;6.282;2022-11-20T14:43:04;2.60;99.90
51825;DHT22;37879;52.986;6.282;2022-11-20T14:45:41;2.80;99.90
51825;DHT22;37879;52.986;6.282;2022-11-20T14:48:09;4.50;99.90
51825;DHT22;37879;52.986;6.282;2022-11-20T14:50:37;2.60;99.90
51825;DHT22;37879;52.986;6.282;2022-11-20T14:53:03;3.00;99.90
51825;DHT22;37879;52.986;6.282;2022-11-20T14:55:35;2.50;99.90
51825;DHT22;37879;52.986;6.282;2022-11-20T14:58:06;2.50;99.90
51825;DHT22;37879;52.986;6.282;2022-11-20T15:00:34;3.40;99.90
51825;DHT22;37879;52.986;6.282;2022-11-20T15:03:00;2.40;99.90
51825;DHT22;37879;52.986;6.282;2022-11-20T15:05:45;3.40;99.90
51825;DHT22;37879;52.986;6.282;2022-11-20T15:08:12;2.40;99.90
51825;DHT22;37879;52.986;6.282;2022-11-20T15:10:38;2.80;99.90
51825;DHT22;37879;52.986;6.282;2022-11-20T15:13:36;2.30;99.90
51825;DHT22;37879;52.986;6.282;2022-11-20T15:16:12;2.30;99.90
51825;DHT22;37879;52.986;6.282;2022-11-20T15:18:40;2.20;99.90
51825;DHT22;37879;52.986;6.282;2022-11-20T15:21:15;3.30;99.90
51825;DHT22;37879;52.986;6.282;2022-11-20T15:23:41;2.20;99.90
51825;DHT22;37879;52.986;6.282;2022-11-20T15:26:09;2.20;99.90
51825;DHT22;37879;52.986;6.282;2022-11-20T15:28:46;3.90;99.90
51825;DHT22;37879;52.986;6.282;2022-11-20T15:31:20;2.40;99.90
51825;DHT22;37879;52.986;6.282;2022-11-20T15:33:47;2.40;99.90
51825;DHT22;37879;52.986;6.282;2022-11-20T15:36:13;2.10;99.90
51825;DHT22;37879;52.986;6.282;2022-11-20T15:38:39;3.60;99.90
51825;DHT22;37879;52.986;6.282;2022-11-20T15:41:05;3.80;99.90
51825;DHT22;37879;52.986;6.282;2022-11-20T15:43:31;2.90;99.90
51825;DHT22;37879;52.986;6.282;2022-11-20T15:46:17;2.10;99.90
51825;DHT22;37879;52.986;6.282;2022-11-20T15:48:52;2.10;99.90
51825;DHT22;37879;52.986;6.282;2022-11-20T15:51:41;2.10;99.90
51825;DHT22;37879;52.986;6.282;2022-11-20T15:54:15;3.30;99.90
51825;DHT22;37879;52.986;6.282;2022-11-20T15:56:43;2.10;99.90
51825;DHT22;37879;52.986;6.282;2022-11-20T15:59:08;2.40;99.90
51825;DHT22;37879;52.986;6.282;2022-11-20T16:01:34;2.10;99.90
51825;DHT22;37879;52.986;6.282;2022-11-20T16:04:00;2.10;99.90
51825;DHT22;37879;52.986;6.282;2022-11-20T16:06:26;2.00;99.90
51825;DHT22;37879;52.986;6.282;2022-11-20T16:08:52;2.00;99.90
51825;DHT22;37879;52.986;6.282;2022-11-20T16:11:18;2.00;99.90
51825;DHT22;37879;52.986;6.282;2022-11-20T16:13:44;2.00;99.90
51825;DHT22;37879;52.986;6.282;2022-11-20T16:16:34;2.00;99.90
51825;DHT22;37879;52.986;6.282;2022-11-20T16:19:00;2.00;99.90
51825;DHT22;37879;52.986;6.282;2022-11-20T16:21:26;2.00;99.90
51825;DHT22;37879;52.986;6.282;2022-11-20T16:24:05;2.60;99.90
51825;DHT22;37879;52.986;6.282;2022-11-20T16:26:31;1.90;99.90
51825;DHT22;37879;52.986;6.282;2022-11-20T16:28:59;3.10;99.90
51825;DHT22;37879;52.986;6.282;2022-11-20T16:31:24;1.90;99.90
51825;DHT22;37879;52.986;6.282;2022-11-20T16:33:52;2.00;99.90
51825;DHT22;37879;52.986;6.282;2022-11-20T16:36:19;3.00;99.90
51825;DHT22;37879;52.986;6.282;2022-11-20T16:38:45;2.30;99.90
51825;DHT22;37879;52.986;6.282;2022-11-20T16:41:11;2.00;99.90
51825;DHT22;37879;52.986;6.282;2022-11-20T16:43:44;1.90;99.90
51825;DHT22;37879;52.986;6.282;2022-11-20T16:46:11;1.90;99.90
51825;DHT22;37879;52.986;6.282;2022-11-20T16:48:37;1.90;99.90
51825;DHT22;37879;52.986;6.282;2022-11-20T16:51:02;3.50;99.90
51825;DHT22;37879;52.986;6.282;2022-11-20T16:53:28;1.90;99.90
51825;DHT22;37879;52.986;6.282;2022-11-20T16:56:17;3.30;99.90
51825;DHT22;37879;52.986;6.282;2022-11-20T16:58:44;1.90;99.90
51825;DHT22;37879;52.986;6.282;2022-11-20T17:01:13;1.90;99.90
51825;DHT22;37879;52.986;6.282;2022-11-20T17:03:40;1.90;99.90
51825;DHT22;37879;52.986;6.282;2022-11-20T17:06:17;1.90;99.90
51825;DHT22;37879;52.986;6.282;2022-11-20T17:08:43;2.60;99.90
51825;DHT22;37879;52.986;6.282;2022-11-20T17:11:11;3.10;99.90
51825;DHT22;37879;52.986;6.282;2022-11-20T17:13:37;1.90;99.90
51825;DHT22;37879;52.986;6.282;2022-11-20T17:16:05;1.90;99.90
51825;DHT22;37879;52.986;6.282;2022-11-20T17:18:31;1.90;99.90
51825;DHT22;37879;52.986;6.282;2022-11-20T17:20:59;1.80;99.90
51825;DHT22;37879;52.986;6.282;2022-11-20T17:23:36;1.80;99.90
51825;DHT22;37879;52.986;6.282;2022-11-20T17:26:05;1.80;99.90
51825;DHT22;37879;52.986;6.282;2022-11-20T17:28:31;2.80;99.90
51825;DHT22;37879;52.986;6.282;2022-11-20T17:31:06;2.90;99.90
51825;DHT22;37879;52.986;6.282;2022-11-20T17:33:34;2.00;99.90
51825;DHT22;37879;52.986;6.282;2022-11-20T17:36:00;1.70;99.90
51825;DHT22;37879;52.986;6.282;2022-11-20T17:38:26;1.80;99.90
51825;DHT22;37879;52.986;6.282;2022-11-20T17:40:51;3.00;99.90
51825;DHT22;37879;52.986;6.282;2022-11-20T17:43:17;1.70;99.90
51825;DHT22;37879;52.986;6.282;2022-11-20T17:45:43;2.50;99.90
51825;DHT22;37879;52.986;6.282;2022-11-20T17:48:10;3.00;99.90
51825;DHT22;37879;52.986;6.282;2022-11-20T17:50:35;2.20;99.90